메인 페이지
METAR-TAF:

METAR-TAF

공항 :

스톡홀름-Skavsta, 스웨덴

위도: 58-47N, 경도: 016-55E, 고도: 43m

현재 날씨관측

예보는 45분 전, 03:20시(UTC)에 발표되었습니다.
북북동3kt풍과 풍을 오가는
온도 14°C
습도 100%
기압 1013 hPa
시정: 0450m
고도 100ft 상공 구름 조금
고도 200ft 상공 구름 보통
고도 600ft 상공 흐림
안개,

METAR: ESKN 210320Z 03003KT 010V080 0450 R08/P2000N R26/1900N FG FEW001 SCT002 OVC006 14/14 Q1013

시각: 06:05 (04:05 UTC)

예보

예보는 1 시간 35분 전, 02:30시(UTC)에 발표되었습니다.
예보 대상 시간: 21일 03시부터 22일 03시까지 (UTC)
여러 방향의 바람 3kt
시정: 3000m
고도 500ft 상공 구름 조금
곳곳에 안개
일시적
21일 03시부터 21일 05시까지 (UTC)
시정: 0200m
고도 300ft 상공
안개
전환 중
21일 05시부터 21일 07시까지 (UTC)
시정 10km 이상

TAF: ESKN 210230Z 2103/2203 VRB03KT 3000 BCFG FEW005 TEMPO 2103/2105 0200 FG VV003 BECMG 2105/2107 9999 NSW

4,000개 이상의 공항 관측 자료 및 예보 (METAR 및 TAF 보고).

지도상에서 검색 가능한 기상관측소가 노란 점과 빨간 점으로 표시되어 있습니다.

기상관측소 명을 보려면 표시 위로 마우스를 이동하세요.

날씨 관측과 예보를 보려면 클릭하세요.

지도 변경 : 확대하려면 엑스 표시가 있는 녹색 버튼, 축소하려면 빼기 표시가 있는 녹색 버튼, 다음 페이지의 지도를 보려면 녹색 화살표를 클릭하세요.


METAR-TAF: